sensor_id;sensor_type;location;lat;lon;timestamp;temperature;humidity
6102;DHT22;3081;50.584;7.032;2023-11-21T00:00:23;9.10;99.90
6102;DHT22;3081;50.584;7.032;2023-11-21T00:02:50;9.10;99.90
6102;DHT22;3081;50.584;7.032;2023-11-21T00:05:17;9.10;99.90
6102;DHT22;3081;50.584;7.032;2023-11-21T00:07:44;9.10;99.90
6102;DHT22;3081;50.584;7.032;2023-11-21T00:10:12;9.00;99.90
6102;DHT22;3081;50.584;7.032;2023-11-21T00:12:42;9.10;99.90
6102;DHT22;3081;50.584;7.032;2023-11-21T00:15:10;9.10;99.90
6102;DHT22;3081;50.584;7.032;2023-11-21T00:17:37;9.20;99.90
6102;DHT22;3081;50.584;7.032;2023-11-21T00:20:04;9.10;99.90
6102;DHT22;3081;50.584;7.032;2023-11-21T00:22:32;9.10;99.90
6102;DHT22;3081;50.584;7.032;2023-11-21T00:24:59;9.20;99.90
6102;DHT22;3081;50.584;7.032;2023-11-21T00:27:26;9.10;99.90
6102;DHT22;3081;50.584;7.032;2023-11-21T00:29:54;9.10;99.90
6102;DHT22;3081;50.584;7.032;2023-11-21T00:32:21;9.10;99.90
6102;DHT22;3081;50.584;7.032;2023-11-21T00:34:48;9.20;99.90
6102;DHT22;3081;50.584;7.032;2023-11-21T00:37:15;9.20;99.90
6102;DHT22;3081;50.584;7.032;2023-11-21T00:39:42;9.30;99.90
6102;DHT22;3081;50.584;7.032;2023-11-21T00:42:09;9.30;99.90
6102;DHT22;3081;50.584;7.032;2023-11-21T00:44:37;9.30;99.90
6102;DHT22;3081;50.584;7.032;2023-11-21T00:47:06;9.30;99.90
6102;DHT22;3081;50.584;7.032;2023-11-21T00:49:33;9.20;99.90
6102;DHT22;3081;50.584;7.032;2023-11-21T00:52:00;9.20;99.90
6102;DHT22;3081;50.584;7.032;2023-11-21T00:54:28;9.10;99.90
6102;DHT22;3081;50.584;7.032;2023-11-21T00:56:55;9.10;99.90
6102;DHT22;3081;50.584;7.032;2023-11-21T00:59:22;9.10;99.90
6102;DHT22;3081;50.584;7.032;2023-11-21T01:01:50;9.10;99.90
6102;DHT22;3081;50.584;7.032;2023-11-21T01:04:18;9.10;99.90
6102;DHT22;3081;50.584;7.032;2023-11-21T01:06:45;9.00;99.90
6102;DHT22;3081;50.584;7.032;2023-11-21T01:09:12;9.00;99.90
6102;DHT22;3081;50.584;7.032;2023-11-21T01:11:38;9.00;99.90
6102;DHT22;3081;50.584;7.032;2023-11-21T01:14:05;9.10;99.90
6102;DHT22;3081;50.584;7.032;2023-11-21T01:16:34;9.00;99.90
6102;DHT22;3081;50.584;7.032;2023-11-21T01:19:01;9.00;99.90
6102;DHT22;3081;50.584;7.032;2023-11-21T01:21:32;9.00;99.90
6102;DHT22;3081;50.584;7.032;2023-11-21T01:23:59;9.00;99.90
6102;DHT22;3081;50.584;7.032;2023-11-21T01:26:26;9.00;99.90
6102;DHT22;3081;50.584;7.032;2023-11-21T01:28:53;9.00;99.90
6102;DHT22;3081;50.584;7.032;2023-11-21T01:31:20;9.00;99.90
6102;DHT22;3081;50.584;7.032;2023-11-21T01:33:47;9.00;99.90
6102;DHT22;3081;50.584;7.032;2023-11-21T01:36:14;9.00;99.90
6102;DHT22;3081;50.584;7.032;2023-11-21T01:38:42;9.00;99.90
6102;DHT22;3081;50.584;7.032;2023-11-21T01:41:09;8.90;99.90
6102;DHT22;3081;50.584;7.032;2023-11-21T01:43:37;8.90;99.90
6102;DHT22;3081;50.584;7.032;2023-11-21T01:46:04;8.90;99.90
6102;DHT22;3081;50.584;7.032;2023-11-21T01:48:32;8.90;99.90
6102;DHT22;3081;50.584;7.032;2023-11-21T01:50:59;8.90;99.90
6102;DHT22;3081;50.584;7.032;2023-11-21T01:53:27;8.90;99.90
6102;DHT22;3081;50.584;7.032;2023-11-21T01:55:55;8.90;99.90
6102;DHT22;3081;50.584;7.032;2023-11-21T01:58:23;8.90;99.90
6102;DHT22;3081;50.584;7.032;2023-11-21T02:00:50;8.90;99.90
6102;DHT22;3081;50.584;7.032;2023-11-21T02:03:18;8.90;99.90
6102;DHT22;3081;50.584;7.032;2023-11-21T02:05:45;8.90;99.90
6102;DHT22;3081;50.584;7.032;2023-11-21T02:08:12;8.90;99.90
6102;DHT22;3081;50.584;7.032;2023-11-21T02:10:40;8.80;99.90
6102;DHT22;3081;50.584;7.032;2023-11-21T02:13:08;8.80;99.90
6102;DHT22;3081;50.584;7.032;2023-11-21T02:15:36;8.90;99.90
6102;DHT22;3081;50.584;7.032;2023-11-21T02:18:04;8.90;99.90
6102;DHT22;3081;50.584;7.032;2023-11-21T02:20:32;8.90;99.90
6102;DHT22;3081;50.584;7.032;2023-11-21T02:23:01;8.90;99.90
6102;DHT22;3081;50.584;7.032;2023-11-21T02:25:29;8.90;99.90
6102;DHT22;3081;50.584;7.032;2023-11-21T02:27:58;9.00;99.90
6102;DHT22;3081;50.584;7.032;2023-11-21T02:30:26;9.00;99.90
6102;DHT22;3081;50.584;7.032;2023-11-21T02:32:53;9.10;99.90
6102;DHT22;3081;50.584;7.032;2023-11-21T02:35:22;9.00;99.90
6102;DHT22;3081;50.584;7.032;2023-11-21T02:37:51;9.00;99.90
6102;DHT22;3081;50.584;7.032;2023-11-21T02:40:20;9.00;99.90
6102;DHT22;3081;50.584;7.032;2023-11-21T02:42:47;9.00;99.90
6102;DHT22;3081;50.584;7.032;2023-11-21T02:45:14;9.10;99.90
6102;DHT22;3081;50.584;7.032;2023-11-21T02:47:42;9.10;99.90
6102;DHT22;3081;50.584;7.032;2023-11-21T02:50:09;9.10;99.90
6102;DHT22;3081;50.584;7.032;2023-11-21T02:52:36;9.20;99.90
6102;DHT22;3081;50.584;7.032;2023-11-21T02:55:04;9.20;99.90
6102;DHT22;3081;50.584;7.032;2023-11-21T02:57:32;9.20;99.90
6102;DHT22;3081;50.584;7.032;2023-11-21T02:59:59;9.20;99.90
6102;DHT22;3081;50.584;7.032;2023-11-21T03:02:26;9.30;99.90
6102;DHT22;3081;50.584;7.032;2023-11-21T03:04:53;9.20;99.90
6102;DHT22;3081;50.584;7.032;2023-11-21T03:07:20;9.20;99.90
6102;DHT22;3081;50.584;7.032;2023-11-21T03:09:47;9.20;99.90
6102;DHT22;3081;50.584;7.032;2023-11-21T03:12:14;9.20;99.90
6102;DHT22;3081;50.584;7.032;2023-11-21T03:14:42;9.20;99.90
6102;DHT22;3081;50.584;7.032;2023-11-21T03:17:09;9.20;99.90
6102;DHT22;3081;50.584;7.032;2023-11-21T03:19:37;9.20;99.90
6102;DHT22;3081;50.584;7.032;2023-11-21T03:22:07;9.20;99.90
6102;DHT22;3081;50.584;7.032;2023-11-21T03:24:34;9.20;99.90
6102;DHT22;3081;50.584;7.032;2023-11-21T03:27:01;9.20;99.90
6102;DHT22;3081;50.584;7.032;2023-11-21T03:29:28;9.10;99.90
6102;DHT22;3081;50.584;7.032;2023-11-21T03:31:56;9.10;99.90
6102;DHT22;3081;50.584;7.032;2023-11-21T03:34:24;9.10;99.90
6102;DHT22;3081;50.584;7.032;2023-11-21T03:36:51;9.10;99.90
6102;DHT22;3081;50.584;7.032;2023-11-21T03:39:20;9.10;99.90
6102;DHT22;3081;50.584;7.032;2023-11-21T03:41:47;9.10;99.90
6102;DHT22;3081;50.584;7.032;2023-11-21T03:44:14;9.10;99.90
6102;DHT22;3081;50.584;7.032;2023-11-21T03:46:41;9.10;99.90
6102;DHT22;3081;50.584;7.032;2023-11-21T03:49:10;9.10;99.90
6102;DHT22;3081;50.584;7.032;2023-11-21T03:51:37;9.10;99.90
6102;DHT22;3081;50.584;7.032;2023-11-21T03:54:04;9.10;99.90
6102;DHT22;3081;50.584;7.032;2023-11-21T03:56:31;9.10;99.90
6102;DHT22;3081;50.584;7.032;2023-11-21T03:58:58;9.10;99.90
6102;DHT22;3081;50.584;7.032;2023-11-21T04:01:25;9.10;99.90
6102;DHT22;3081;50.584;7.032;2023-11-21T04:03:52;9.10;99.90
6102;DHT22;3081;50.584;7.032;2023-11-21T04:06:20;9.10;99.90
6102;DHT22;3081;50.584;7.032;2023-11-21T04:08:47;9.10;99.90
6102;DHT22;3081;50.584;7.032;2023-11-21T04:11:14;9.10;99.90
6102;DHT22;3081;50.584;7.032;2023-11-21T04:13:41;9.10;99.90
6102;DHT22;3081;50.584;7.032;2023-11-21T04:16:09;9.10;99.90
6102;DHT22;3081;50.584;7.032;2023-11-21T04:18:36;9.10;99.90
6102;DHT22;3081;50.584;7.032;2023-11-21T04:21:04;9.00;99.90
6102;DHT22;3081;50.584;7.032;2023-11-21T04:23:32;9.00;99.90
6102;DHT22;3081;50.584;7.032;2023-11-21T04:26:00;9.00;99.90
6102;DHT22;3081;50.584;7.032;2023-11-21T04:28:27;8.90;99.90
6102;DHT22;3081;50.584;7.032;2023-11-21T04:30:54;8.90;99.90
6102;DHT22;3081;50.584;7.032;2023-11-21T04:33:21;8.90;99.90
6102;DHT22;3081;50.584;7.032;2023-11-21T04:35:48;8.90;99.90
6102;DHT22;3081;50.584;7.032;2023-11-21T04:38:15;8.80;99.90
6102;DHT22;3081;50.584;7.032;2023-11-21T04:40:44;8.80;99.90
6102;DHT22;3081;50.584;7.032;2023-11-21T04:43:11;8.90;99.90
6102;DHT22;3081;50.584;7.032;2023-11-21T04:45:38;8.80;99.90
6102;DHT22;3081;50.584;7.032;2023-11-21T04:48:06;8.80;99.90
6102;DHT22;3081;50.584;7.032;2023-11-21T04:50:33;8.80;99.90
6102;DHT22;3081;50.584;7.032;2023-11-21T04:53:00;8.80;99.90
6102;DHT22;3081;50.584;7.032;2023-11-21T04:55:28;8.80;99.90
6102;DHT22;3081;50.584;7.032;2023-11-21T04:57:56;8.70;99.90
6102;DHT22;3081;50.584;7.032;2023-11-21T05:00:23;8.80;99.90
6102;DHT22;3081;50.584;7.032;2023-11-21T05:02:50;8.80;99.90
6102;DHT22;3081;50.584;7.032;2023-11-21T05:05:17;8.80;99.90
6102;DHT22;3081;50.584;7.032;2023-11-21T05:07:44;8.90;99.90
6102;DHT22;3081;50.584;7.032;2023-11-21T05:10:11;8.80;99.90
6102;DHT22;3081;50.584;7.032;2023-11-21T05:12:40;8.90;99.90
6102;DHT22;3081;50.584;7.032;2023-11-21T05:15:10;8.90;99.90
6102;DHT22;3081;50.584;7.032;2023-11-21T05:17:39;8.90;99.90
6102;DHT22;3081;50.584;7.032;2023-11-21T05:20:08;8.90;99.90
6102;DHT22;3081;50.584;7.032;2023-11-21T05:22:35;8.90;99.90
6102;DHT22;3081;50.584;7.032;2023-11-21T05:25:03;8.90;99.90
6102;DHT22;3081;50.584;7.032;2023-11-21T05:27:30;8.90;99.90
6102;DHT22;3081;50.584;7.032;2023-11-21T05:29:57;9.00;99.90
6102;DHT22;3081;50.584;7.032;2023-11-21T05:32:25;9.00;99.90
6102;DHT22;3081;50.584;7.032;2023-11-21T05:34:53;8.90;99.90
6102;DHT22;3081;50.584;7.032;2023-11-21T05:37:20;9.00;99.90
6102;DHT22;3081;50.584;7.032;2023-11-21T05:39:48;9.00;99.90
6102;DHT22;3081;50.584;7.032;2023-11-21T05:42:15;9.10;99.90
6102;DHT22;3081;50.584;7.032;2023-11-21T05:44:42;9.10;99.90
6102;DHT22;3081;50.584;7.032;2023-11-21T05:47:09;9.10;99.90
6102;DHT22;3081;50.584;7.032;2023-11-21T05:49:38;9.10;99.90
6102;DHT22;3081;50.584;7.032;2023-11-21T05:52:05;9.10;99.90
6102;DHT22;3081;50.584;7.032;2023-11-21T05:54:32;9.10;99.90
6102;DHT22;3081;50.584;7.032;2023-11-21T05:56:59;9.10;99.90
6102;DHT22;3081;50.584;7.032;2023-11-21T05:59:26;9.00;99.90
6102;DHT22;3081;50.584;7.032;2023-11-21T06:01:53;9.00;99.90
6102;DHT22;3081;50.584;7.032;2023-11-21T06:04:20;9.00;99.90
6102;DHT22;3081;50.584;7.032;2023-11-21T06:06:51;9.10;99.90
6102;DHT22;3081;50.584;7.032;2023-11-21T06:09:18;9.10;99.90
6102;DHT22;3081;50.584;7.032;2023-11-21T06:11:45;9.20;99.90
6102;DHT22;3081;50.584;7.032;2023-11-21T06:14:12;9.20;99.90
6102;DHT22;3081;50.584;7.032;2023-11-21T06:16:38;9.20;99.90
6102;DHT22;3081;50.584;7.032;2023-11-21T06:19:06;9.20;99.90
6102;DHT22;3081;50.584;7.032;2023-11-21T06:21:33;9.20;99.90
6102;DHT22;3081;50.584;7.032;2023-11-21T06:24:02;9.20;99.90
6102;DHT22;3081;50.584;7.032;2023-11-21T06:26:29;9.20;99.90
6102;DHT22;3081;50.584;7.032;2023-11-21T06:28:57;9.20;99.90
6102;DHT22;3081;50.584;7.032;2023-11-21T06:31:24;9.10;99.90
6102;DHT22;3081;50.584;7.032;2023-11-21T06:33:51;9.10;99.90
6102;DHT22;3081;50.584;7.032;2023-11-21T06:36:18;9.10;99.90
6102;DHT22;3081;50.584;7.032;2023-11-21T06:38:45;9.10;99.90
6102;DHT22;3081;50.584;7.032;2023-11-21T06:41:14;9.10;99.90
6102;DHT22;3081;50.584;7.032;2023-11-21T06:43:41;9.10;99.90
6102;DHT22;3081;50.584;7.032;2023-11-21T06:46:12;9.10;99.90
6102;DHT22;3081;50.584;7.032;2023-11-21T06:48:42;9.10;99.90
6102;DHT22;3081;50.584;7.032;2023-11-21T06:51:09;9.10;99.90
6102;DHT22;3081;50.584;7.032;2023-11-21T06:53:37;9.10;99.90
6102;DHT22;3081;50.584;7.032;2023-11-21T06:56:05;9.10;99.90
6102;DHT22;3081;50.584;7.032;2023-11-21T06:58:43;9.00;99.90
6102;DHT22;3081;50.584;7.032;2023-11-21T07:01:11;9.00;99.90
6102;DHT22;3081;50.584;7.032;2023-11-21T07:03:38;9.10;99.90
6102;DHT22;3081;50.584;7.032;2023-11-21T07:06:05;9.10;99.90
6102;DHT22;3081;50.584;7.032;2023-11-21T07:08:33;9.10;99.90
6102;DHT22;3081;50.584;7.032;2023-11-21T07:11:00;9.10;99.90
6102;DHT22;3081;50.584;7.032;2023-11-21T07:13:28;9.00;99.90
6102;DHT22;3081;50.584;7.032;2023-11-21T07:15:57;9.00;99.90
6102;DHT22;3081;50.584;7.032;2023-11-21T07:18:24;9.00;99.90
6102;DHT22;3081;50.584;7.032;2023-11-21T07:20:51;9.00;99.90
6102;DHT22;3081;50.584;7.032;2023-11-21T07:23:19;9.00;99.90
6102;DHT22;3081;50.584;7.032;2023-11-21T07:25:48;9.00;99.90
6102;DHT22;3081;50.584;7.032;2023-11-21T07:28:15;9.00;99.90
6102;DHT22;3081;50.584;7.032;2023-11-21T07:30:42;9.00;99.90
6102;DHT22;3081;50.584;7.032;2023-11-21T07:33:10;9.10;99.90
6102;DHT22;3081;50.584;7.032;2023-11-21T07:35:37;9.10;99.90
6102;DHT22;3081;50.584;7.032;2023-11-21T07:38:04;9.10;99.90
6102;DHT22;3081;50.584;7.032;2023-11-21T07:40:31;9.10;99.90
6102;DHT22;3081;50.584;7.032;2023-11-21T07:42:58;9.20;99.90
6102;DHT22;3081;50.584;7.032;2023-11-21T07:45:25;9.20;99.90
6102;DHT22;3081;50.584;7.032;2023-11-21T07:47:53;9.20;99.90
6102;DHT22;3081;50.584;7.032;2023-11-21T07:50:21;9.20;99.90
6102;DHT22;3081;50.584;7.032;2023-11-21T07:52:48;9.30;99.90
6102;DHT22;3081;50.584;7.032;2023-11-21T07:55:16;9.20;99.90
6102;DHT22;3081;50.584;7.032;2023-11-21T07:57:43;9.20;99.90
6102;DHT22;3081;50.584;7.032;2023-11-21T08:00:11;9.30;99.90
6102;DHT22;3081;50.584;7.032;2023-11-21T08:02:38;9.30;99.90
6102;DHT22;3081;50.584;7.032;2023-11-21T08:05:08;9.40;99.90
6102;DHT22;3081;50.584;7.032;2023-11-21T08:07:37;9.50;99.90
6102;DHT22;3081;50.584;7.032;2023-11-21T08:10:05;9.50;99.90
6102;DHT22;3081;50.584;7.032;2023-11-21T08:12:35;9.60;99.90
6102;DHT22;3081;50.584;7.032;2023-11-21T08:15:05;9.60;99.90
6102;DHT22;3081;50.584;7.032;2023-11-21T08:17:33;9.60;99.90
6102;DHT22;3081;50.584;7.032;2023-11-21T08:20:00;9.60;99.90
6102;DHT22;3081;50.584;7.032;2023-11-21T08:22:29;9.70;99.90
6102;DHT22;3081;50.584;7.032;2023-11-21T08:24:57;9.60;99.90
6102;DHT22;3081;50.584;7.032;2023-11-21T08:27:24;9.70;99.90
6102;DHT22;3081;50.584;7.032;2023-11-21T08:29:51;9.70;99.90
6102;DHT22;3081;50.584;7.032;2023-11-21T08:32:18;9.70;99.90
6102;DHT22;3081;50.584;7.032;2023-11-21T08:34:45;9.70;99.90
6102;DHT22;3081;50.584;7.032;2023-11-21T08:37:16;9.80;99.90
6102;DHT22;3081;50.584;7.032;2023-11-21T08:39:43;9.80;99.90
6102;DHT22;3081;50.584;7.032;2023-11-21T08:42:12;9.80;99.90
6102;DHT22;3081;50.584;7.032;2023-11-21T08:44:38;9.80;99.90
6102;DHT22;3081;50.584;7.032;2023-11-21T08:47:05;9.80;99.90
6102;DHT22;3081;50.584;7.032;2023-11-21T08:49:32;9.90;99.90
6102;DHT22;3081;50.584;7.032;2023-11-21T08:51:59;10.00;99.90
6102;DHT22;3081;50.584;7.032;2023-11-21T08:54:26;10.00;99.90
6102;DHT22;3081;50.584;7.032;2023-11-21T08:56:53;10.00;99.90
6102;DHT22;3081;50.584;7.032;2023-11-21T08:59:22;10.00;99.90
6102;DHT22;3081;50.584;7.032;2023-11-21T09:01:49;10.10;99.90
6102;DHT22;3081;50.584;7.032;2023-11-21T09:04:16;10.10;99.90
6102;DHT22;3081;50.584;7.032;2023-11-21T09:06:43;10.10;99.90
6102;DHT22;3081;50.584;7.032;2023-11-21T09:09:10;10.20;99.90
6102;DHT22;3081;50.584;7.032;2023-11-21T09:11:37;10.10;99.90
6102;DHT22;3081;50.584;7.032;2023-11-21T09:14:04;10.10;99.90
6102;DHT22;3081;50.584;7.032;2023-11-21T09:16:33;10.00;99.90
6102;DHT22;3081;50.584;7.032;2023-11-21T09:19:00;10.00;99.90
6102;DHT22;3081;50.584;7.032;2023-11-21T09:21:26;10.10;99.90
6102;DHT22;3081;50.584;7.032;2023-11-21T09:23:54;10.10;99.90
6102;DHT22;3081;50.584;7.032;2023-11-21T09:26:21;10.20;99.90
6102;DHT22;3081;50.584;7.032;2023-11-21T09:28:47;10.30;99.90
6102;DHT22;3081;50.584;7.032;2023-11-21T09:31:15;10.40;99.90
6102;DHT22;3081;50.584;7.032;2023-11-21T09:33:46;10.40;99.90
6102;DHT22;3081;50.584;7.032;2023-11-21T09:36:13;10.40;99.90
6102;DHT22;3081;50.584;7.032;2023-11-21T09:38:41;10.30;99.90
6102;DHT22;3081;50.584;7.032;2023-11-21T09:41:15;10.30;99.90
6102;DHT22;3081;50.584;7.032;2023-11-21T09:43:46;10.30;99.90
6102;DHT22;3081;50.584;7.032;2023-11-21T09:46:15;10.20;99.90
6102;DHT22;3081;50.584;7.032;2023-11-21T09:48:50;10.20;99.90
6102;DHT22;3081;50.584;7.032;2023-11-21T09:51:19;10.30;99.90
6102;DHT22;3081;50.584;7.032;2023-11-21T09:53:50;10.30;99.90
6102;DHT22;3081;50.584;7.032;2023-11-21T09:56:18;10.30;99.90
6102;DHT22;3081;50.584;7.032;2023-11-21T09:58:51;10.30;99.90
6102;DHT22;3081;50.584;7.032;2023-11-21T10:01:19;10.30;99.90
6102;DHT22;3081;50.584;7.032;2023-11-21T10:03:48;10.30;99.90
6102;DHT22;3081;50.584;7.032;2023-11-21T10:06:18;10.40;99.90
6102;DHT22;3081;50.584;7.032;2023-11-21T10:08:46;10.50;99.90
6102;DHT22;3081;50.584;7.032;2023-11-21T10:11:14;10.50;99.90
6102;DHT22;3081;50.584;7.032;2023-11-21T10:13:43;10.60;99.90
6102;DHT22;3081;50.584;7.032;2023-11-21T10:16:14;10.60;99.90
6102;DHT22;3081;50.584;7.032;2023-11-21T10:18:43;10.70;99.90
6102;DHT22;3081;50.584;7.032;2023-11-21T10:21:13;10.70;99.90
6102;DHT22;3081;50.584;7.032;2023-11-21T10:23:40;10.80;99.90
6102;DHT22;3081;50.584;7.032;2023-11-21T10:26:11;10.90;99.90
6102;DHT22;3081;50.584;7.032;2023-11-21T10:28:41;10.90;99.90
6102;DHT22;3081;50.584;7.032;2023-11-21T10:31:08;11.00;99.90
6102;DHT22;3081;50.584;7.032;2023-11-21T10:33:35;11.00;99.90
6102;DHT22;3081;50.584;7.032;2023-11-21T10:36:03;11.00;99.90
6102;DHT22;3081;50.584;7.032;2023-11-21T10:38:42;11.10;99.90
6102;DHT22;3081;50.584;7.032;2023-11-21T10:41:11;11.10;99.90
6102;DHT22;3081;50.584;7.032;2023-11-21T10:43:41;11.30;99.90
6102;DHT22;3081;50.584;7.032;2023-11-21T10:46:08;11.50;99.90
6102;DHT22;3081;50.584;7.032;2023-11-21T10:48:35;11.60;99.90
6102;DHT22;3081;50.584;7.032;2023-11-21T10:51:07;11.60;99.90
6102;DHT22;3081;50.584;7.032;2023-11-21T10:53:39;11.70;99.90
6102;DHT22;3081;50.584;7.032;2023-11-21T10:56:09;11.70;99.90
6102;DHT22;3081;50.584;7.032;2023-11-21T10:58:39;11.80;99.90
6102;DHT22;3081;50.584;7.032;2023-11-21T11:01:07;11.90;99.90
6102;DHT22;3081;50.584;7.032;2023-11-21T11:03:37;12.00;99.90
6102;DHT22;3081;50.584;7.032;2023-11-21T11:06:05;12.10;99.90
6102;DHT22;3081;50.584;7.032;2023-11-21T11:08:38;12.20;99.90
6102;DHT22;3081;50.584;7.032;2023-11-21T11:11:05;12.20;99.90
6102;DHT22;3081;50.584;7.032;2023-11-21T11:13:32;12.10;99.90
6102;DHT22;3081;50.584;7.032;2023-11-21T11:16:00;11.90;99.90
6102;DHT22;3081;50.584;7.032;2023-11-21T11:18:28;11.70;99.90
6102;DHT22;3081;50.584;7.032;2023-11-21T11:21:00;11.60;99.90
6102;DHT22;3081;50.584;7.032;2023-11-21T11:23:45;11.40;99.90
6102;DHT22;3081;50.584;7.032;2023-11-21T11:26:20;11.40;99.90
6102;DHT22;3081;50.584;7.032;2023-11-21T11:29:02;11.40;99.90
6102;DHT22;3081;50.584;7.032;2023-11-21T11:31:39;11.40;99.90
6102;DHT22;3081;50.584;7.032;2023-11-21T11:34:19;11.40;99.90
6102;DHT22;3081;50.584;7.032;2023-11-21T11:36:55;11.40;99.90
6102;DHT22;3081;50.584;7.032;2023-11-21T11:39:34;11.30;99.90
6102;DHT22;3081;50.584;7.032;2023-11-21T11:42:04;11.30;99.90
6102;DHT22;3081;50.584;7.032;2023-11-21T11:44:48;11.20;99.90
6102;DHT22;3081;50.584;7.032;2023-11-21T11:47:19;11.30;99.90
6102;DHT22;3081;50.584;7.032;2023-11-21T11:50:06;11.40;99.90
6102;DHT22;3081;50.584;7.032;2023-11-21T11:52:38;11.60;99.90
6102;DHT22;3081;50.584;7.032;2023-11-21T11:55:08;11.70;99.90
6102;DHT22;3081;50.584;7.032;2023-11-21T11:57:39;11.80;99.90
6102;DHT22;3081;50.584;7.032;2023-11-21T12:00:11;11.80;99.90
6102;DHT22;3081;50.584;7.032;2023-11-21T12:02:42;11.80;99.90
6102;DHT22;3081;50.584;7.032;2023-11-21T12:05:11;11.80;99.90
6102;DHT22;3081;50.584;7.032;2023-11-21T12:07:43;11.80;99.90
6102;DHT22;3081;50.584;7.032;2023-11-21T12:10:14;11.60;99.90
6102;DHT22;3081;50.584;7.032;2023-11-21T12:12:44;11.50;99.90
6102;DHT22;3081;50.584;7.032;2023-11-21T12:15:14;11.40;99.90
6102;DHT22;3081;50.584;7.032;2023-11-21T12:17:42;11.30;99.90
6102;DHT22;3081;50.584;7.032;2023-11-21T12:20:10;11.30;99.90
6102;DHT22;3081;50.584;7.032;2023-11-21T12:22:45;11.30;99.90
6102;DHT22;3081;50.584;7.032;2023-11-21T12:25:19;11.30;99.90
6102;DHT22;3081;50.584;7.032;2023-11-21T12:27:48;11.30;99.90
6102;DHT22;3081;50.584;7.032;2023-11-21T12:30:17;11.30;99.90
6102;DHT22;3081;50.584;7.032;2023-11-21T12:32:45;11.40;99.90
6102;DHT22;3081;50.584;7.032;2023-11-21T12:35:14;11.50;99.90
6102;DHT22;3081;50.584;7.032;2023-11-21T12:37:43;11.60;99.90
6102;DHT22;3081;50.584;7.032;2023-11-21T12:40:10;11.70;99.90
6102;DHT22;3081;50.584;7.032;2023-11-21T12:42:44;11.80;99.90
6102;DHT22;3081;50.584;7.032;2023-11-21T12:45:19;11.90;99.90
6102;DHT22;3081;50.584;7.032;2023-11-21T12:47:47;12.00;99.90
6102;DHT22;3081;50.584;7.032;2023-11-21T12:50:18;12.00;99.90
6102;DHT22;3081;50.584;7.032;2023-11-21T12:52:49;12.00;99.90
6102;DHT22;3081;50.584;7.032;2023-11-21T12:55:17;12.10;99.90
6102;DHT22;3081;50.584;7.032;2023-11-21T12:57:49;12.20;99.90
6102;DHT22;3081;50.584;7.032;2023-11-21T13:00:20;12.30;99.90
6102;DHT22;3081;50.584;7.032;2023-11-21T13:02:54;12.60;99.90
6102;DHT22;3081;50.584;7.032;2023-11-21T13:05:27;12.60;99.90
6102;DHT22;3081;50.584;7.032;2023-11-21T13:07:55;12.40;99.90
6102;DHT22;3081;50.584;7.032;2023-11-21T13:10:24;12.20;99.90
6102;DHT22;3081;50.584;7.032;2023-11-21T13:12:54;12.10;99.90
6102;DHT22;3081;50.584;7.032;2023-11-21T13:15:23;12.10;99.90
6102;DHT22;3081;50.584;7.032;2023-11-21T13:17:50;12.00;99.90
6102;DHT22;3081;50.584;7.032;2023-11-21T13:20:19;11.90;99.90
6102;DHT22;3081;50.584;7.032;2023-11-21T13:22:47;11.90;99.90
6102;DHT22;3081;50.584;7.032;2023-11-21T13:25:15;11.80;99.90
6102;DHT22;3081;50.584;7.032;2023-11-21T13:27:44;11.80;99.90
6102;DHT22;3081;50.584;7.032;2023-11-21T13:30:13;11.70;99.90
6102;DHT22;3081;50.584;7.032;2023-11-21T13:32:44;11.70;99.90
6102;DHT22;3081;50.584;7.032;2023-11-21T13:35:12;11.70;99.90
6102;DHT22;3081;50.584;7.032;2023-11-21T13:37:50;11.90;99.90
6102;DHT22;3081;50.584;7.032;2023-11-21T13:40:21;12.10;99.90
6102;DHT22;3081;50.584;7.032;2023-11-21T13:42:53;12.20;99.90
6102;DHT22;3081;50.584;7.032;2023-11-21T13:45:22;12.30;99.90
6102;DHT22;3081;50.584;7.032;2023-11-21T13:47:51;12.20;99.90
6102;DHT22;3081;50.584;7.032;2023-11-21T13:50:21;12.10;99.90
6102;DHT22;3081;50.584;7.032;2023-11-21T13:52:51;12.00;99.90
6102;DHT22;3081;50.584;7.032;2023-11-21T13:55:19;11.80;99.90
6102;DHT22;3081;50.584;7.032;2023-11-21T13:57:49;11.60;99.90
6102;DHT22;3081;50.584;7.032;2023-11-21T14:00:18;11.50;99.90
6102;DHT22;3081;50.584;7.032;2023-11-21T14:03:12;11.30;99.90
6102;DHT22;3081;50.584;7.032;2023-11-21T14:05:46;11.20;99.90
6102;DHT22;3081;50.584;7.032;2023-11-21T14:08:17;11.10;99.90
6102;DHT22;3081;50.584;7.032;2023-11-21T14:10:46;11.00;99.90
6102;DHT22;3081;50.584;7.032;2023-11-21T14:13:16;10.90;99.90
6102;DHT22;3081;50.584;7.032;2023-11-21T14:15:43;11.00;99.90
6102;DHT22;3081;50.584;7.032;2023-11-21T14:18:13;10.90;99.90
6102;DHT22;3081;50.584;7.032;2023-11-21T14:20:42;10.90;99.90
6102;DHT22;3081;50.584;7.032;2023-11-21T14:23:10;10.90;99.90
6102;DHT22;3081;50.584;7.032;2023-11-21T14:25:37;10.90;99.90
6102;DHT22;3081;50.584;7.032;2023-11-21T14:28:07;10.90;99.90
6102;DHT22;3081;50.584;7.032;2023-11-21T14:30:37;10.90;99.90
6102;DHT22;3081;50.584;7.032;2023-11-21T14:33:05;10.90;99.90
6102;DHT22;3081;50.584;7.032;2023-11-21T14:35:35;10.90;99.90
6102;DHT22;3081;50.584;7.032;2023-11-21T14:38:02;10.90;99.90
6102;DHT22;3081;50.584;7.032;2023-11-21T14:40:30;10.90;99.90
6102;DHT22;3081;50.584;7.032;2023-11-21T14:42:59;10.90;99.90
6102;DHT22;3081;50.584;7.032;2023-11-21T14:45:26;11.00;99.90
6102;DHT22;3081;50.584;7.032;2023-11-21T14:47:55;11.00;99.90
6102;DHT22;3081;50.584;7.032;2023-11-21T14:50:32;10.90;99.90
6102;DHT22;3081;50.584;7.032;2023-11-21T14:53:12;10.80;99.90
6102;DHT22;3081;50.584;7.032;2023-11-21T14:55:39;10.80;99.90
6102;DHT22;3081;50.584;7.032;2023-11-21T14:58:19;10.80;99.90
6102;DHT22;3081;50.584;7.032;2023-11-21T15:00:53;10.80;99.90
6102;DHT22;3081;50.584;7.032;2023-11-21T15:03:24;10.80;99.90
6102;DHT22;3081;50.584;7.032;2023-11-21T15:06:05;10.70;99.90
6102;DHT22;3081;50.584;7.032;2023-11-21T15:08:50;10.70;99.90
6102;DHT22;3081;50.584;7.032;2023-11-21T15:11:21;10.60;99.90
6102;DHT22;3081;50.584;7.032;2023-11-21T15:13:55;10.60;99.90
6102;DHT22;3081;50.584;7.032;2023-11-21T15:16:21;10.60;99.90
6102;DHT22;3081;50.584;7.032;2023-11-21T15:18:48;10.60;99.90
6102;DHT22;3081;50.584;7.032;2023-11-21T15:21:15;10.50;99.90
6102;DHT22;3081;50.584;7.032;2023-11-21T15:23:41;10.60;99.90
6102;DHT22;3081;50.584;7.032;2023-11-21T15:26:10;10.60;99.90
6102;DHT22;3081;50.584;7.032;2023-11-21T15:28:38;10.50;99.90
6102;DHT22;3081;50.584;7.032;2023-11-21T15:31:05;10.50;99.90
6102;DHT22;3081;50.584;7.032;2023-11-21T15:33:33;10.50;99.90
6102;DHT22;3081;50.584;7.032;2023-11-21T15:36:02;10.50;99.90
6102;DHT22;3081;50.584;7.032;2023-11-21T15:38:30;10.50;99.90
6102;DHT22;3081;50.584;7.032;2023-11-21T15:40:56;10.50;99.90
6102;DHT22;3081;50.584;7.032;2023-11-21T15:43:25;10.50;99.90
6102;DHT22;3081;50.584;7.032;2023-11-21T15:45:53;10.50;99.90
6102;DHT22;3081;50.584;7.032;2023-11-21T15:48:21;10.50;99.90
6102;DHT22;3081;50.584;7.032;2023-11-21T15:50:48;10.40;99.90
6102;DHT22;3081;50.584;7.032;2023-11-21T15:53:17;10.40;99.90
6102;DHT22;3081;50.584;7.032;2023-11-21T15:55:44;10.40;99.90
6102;DHT22;3081;50.584;7.032;2023-11-21T15:58:11;10.40;99.90
6102;DHT22;3081;50.584;7.032;2023-11-21T16:00:39;10.30;99.90
6102;DHT22;3081;50.584;7.032;2023-11-21T16:03:07;10.30;99.90
6102;DHT22;3081;50.584;7.032;2023-11-21T16:05:35;10.30;99.90
6102;DHT22;3081;50.584;7.032;2023-11-21T16:08:02;10.30;99.90
6102;DHT22;3081;50.584;7.032;2023-11-21T16:10:29;10.30;99.90
6102;DHT22;3081;50.584;7.032;2023-11-21T16:12:56;10.30;99.90
6102;DHT22;3081;50.584;7.032;2023-11-21T16:15:23;10.30;99.90
6102;DHT22;3081;50.584;7.032;2023-11-21T16:17:51;10.30;99.90